KROA/ROA METAR and TAF weather

Enter ICAO airport designator
Station Type Date Time Source
KROA METAR 2021/05/15 01:54 UTC NOAA

KROA 150154Z 00000KT 10SM FEW100 16/04 A3028 RMK AO2 SLP248 T01560044


Station Type Date Time Source
KROA Decoded METAR 2021/05/15 01:54 UTC NOAA

ROANOKE REGIONAL AIRPORT, VA, United States (KROA) 37-19N 079-58W 362M
May 14, 2021 - 09:54 PM EDT / 2021.05.15 0154 UTC
Wind: Calm:0
Visibility: 10 mile(s):0
Sky conditions: mostly clear
Temperature: 60.1 F (15.6 C)
Dew Point: 39.9 F (4.4 C)
Relative Humidity: 47%
Pressure (altimeter): 30.28 in. Hg (1025 hPa)
ob: KROA 150154Z 00000KT 10SM FEW100 16/04 A3028 RMK AO2 SLP248 T01560044
cycle: 2

Station Type Date Time Source
KROA TAF 2021/05/14 18:21 UTC NOAA

TAF KROA 141720Z 1418/1518 VRB05KT P6SM VCSH BKN120
FM142200 02005KT P6SM OVC100
FM151000 VRB03KT P6SM FEW250

Example: see airport list